Time;durP1;ratioP1;P1;durP2;ratioP2;P2;SDS_P1;SDS_P2;PMS_P1;PMS_P2;Temp;Humidity;BMP_temperature;BMP_pressure;BME280_temperature;BME280_humidity;BME280_pressure;Samples;Min_cycle;Max_cycle;Signal;HPM_P1;HPM_P2
2022/08/24 00:01:10;;;;;;;;;4.33;4.33;;;;;23.03;69.63;101186.28;5028963;28;46074;-78
2022/08/24 00:03:38;;;;;;;;;6.33;6.33;;;;;23.07;70.06;101195.53;5016092;28;46600;-78
2022/08/24 00:06:06;;;;;;;;;6.00;4.67;;;;;23.03;69.52;101194.41;5028063;28;45741;-77
2022/08/24 00:08:32;;;;;;;;;8.33;8.33;;;;;23.08;69.23;101199.09;5016215;28;45293;-78
2022/08/24 00:10:58;;;;;;;;;10.67;9.33;;;;;23.05;69.27;101194.94;5028457;28;47048;-78
2022/08/24 00:13:24;;;;;;;;;6.33;5.67;;;;;23.01;69.44;101188.41;5016109;28;45312;-78
2022/08/24 00:15:50;;;;;;;;;5.00;5.00;;;;;23.04;69.54;101189.78;5027768;28;45305;-78
2022/08/24 00:18:17;;;;;;;;;6.33;6.00;;;;;23.04;69.59;101190.63;5017320;28;45292;-78
2022/08/24 00:20:42;;;;;;;;;5.00;5.00;;;;;23.03;69.26;101188.97;5016028;28;45403;-77
2022/08/24 00:23:08;;;;;;;;;4.00;4.00;;;;;23.07;69.31;101189.28;5028208;28;47160;-78
2022/08/24 00:25:33;;;;;;;;;4.00;4.00;;;;;23.09;69.46;101187.16;5023881;28;45918;-78
2022/08/24 00:28:00;;;;;;;;;4.00;4.00;;;;;23.07;69.33;101182.00;5021063;28;45510;-78
2022/08/24 00:30:26;;;;;;;;;5.00;5.00;;;;;23.07;69.78;101182.00;5016052;28;45459;-78
2022/08/24 00:32:53;;;;;;;;;4.67;4.67;;;;;23.09;69.58;101184.44;5015524;28;46140;-77
2022/08/24 00:35:19;;;;;;;;;4.67;4.33;;;;;23.04;69.48;101181.66;5034011;28;45405;-78
2022/08/24 00:37:46;;;;;;;;;6.33;6.00;;;;;23.12;69.42;101193.97;5024139;28;45261;-77
2022/08/24 00:40:18;;;;;;;;;4.67;4.00;;;;;23.07;69.48;101184.69;5015501;28;45317;-78
2022/08/24 00:42:44;;;;;;;;;3.67;3.33;;;;;23.13;69.41;101201.84;5024827;28;48037;-78
2022/08/24 00:45:11;;;;;;;;;4.33;4.33;;;;;23.11;69.67;101189.63;5030699;28;45878;-78
2022/08/24 00:47:45;;;;;;;;;6.67;4.33;;;;;23.12;69.61;101186.66;5015996;28;45363;-78
2022/08/24 00:50:18;;;;;;;;;5.00;5.00;;;;;23.10;69.42;101179.84;5027455;28;45361;-77
2022/08/24 00:52:58;;;;;;;;;8.67;6.67;;;;;23.20;69.16;101196.28;5015971;28;45322;-78
2022/08/24 00:55:32;;;;;;;;;10.67;8.33;;;;;23.12;69.17;101189.38;5029995;28;45258;-78
2022/08/24 00:58:11;;;;;;;;;7.33;7.33;;;;;23.11;68.75;101192.34;5034058;28;45337;-77
2022/08/24 01:00:42;;;;;;;;;7.33;7.33;;;;;23.07;68.76;101192.81;5018574;28;45323;-78
2022/08/24 01:03:08;;;;;;;;;8.33;8.33;;;;;23.07;69.62;101187.41;5023026;28;47900;-77
2022/08/24 01:05:36;;;;;;;;;7.67;7.67;;;;;23.02;69.27;101190.03;5026071;28;45360;-77
2022/08/24 01:08:04;;;;;;;;;9.33;9.33;;;;;23.00;69.07;101194.91;5032253;28;45390;-78
2022/08/24 01:10:35;;;;;;;;;9.00;8.67;;;;;22.95;69.22;101181.25;5018242;28;45402;-77
2022/08/24 01:13:05;;;;;;;;;6.00;6.00;;;;;22.92;69.79;101187.16;5018171;28;45495;-78
2022/08/24 01:15:48;;;;;;;;;5.67;5.00;;;;;22.85;70.24;101184.63;5018542;28;45236;-78
2022/08/24 01:21:10;;;;;;;;;4.67;4.00;;;;;22.79;70.45;101175.59;5024455;28;45378;-78
2022/08/24 01:23:39;;;;;;;;;3.67;3.33;;;;;22.72;70.84;101169.53;5018068;28;45406;-78
2022/08/24 01:26:09;;;;;;;;;3.33;3.33;;;;;22.79;70.63;101181.03;5030479;28;45375;-78
2022/08/24 01:28:38;;;;;;;;;5.00;4.33;;;;;22.78;70.44;101181.28;5032313;28;45615;-77
2022/08/24 01:31:05;;;;;;;;;4.67;4.67;;;;;22.82;70.74;101183.25;5029338;28;46286;-78
2022/08/24 01:33:31;;;;;;;;;4.67;4.00;;;;;22.74;70.58;101177.41;5019272;28;45349;-78
2022/08/24 01:36:01;;;;;;;;;6.00;4.67;;;;;22.59;70.37;101153.59;5027596;28;45405;-78
2022/08/24 01:38:27;;;;;;;;;3.67;3.00;;;;;22.76;70.78;101181.50;5019221;28;45298;-78
2022/08/24 01:40:56;;;;;;;;;4.00;4.00;;;;;22.78;70.37;101186.69;5018132;28;45234;-78
2022/08/24 01:43:23;;;;;;;;;4.00;4.00;;;;;22.72;70.71;101183.06;5016604;28;47129;-78
2022/08/24 01:45:49;;;;;;;;;4.33;4.33;;;;;22.77;70.73;101196.69;5018178;28;45415;-77
2022/08/24 01:48:14;;;;;;;;;3.00;3.00;;;;;22.74;70.81;101197.19;5016911;28;45644;-77
2022/08/24 01:50:40;;;;;;;;;6.00;5.00;;;;;22.74;70.48;101199.09;5031795;28;45308;-77
2022/08/24 01:53:06;;;;;;;;;3.00;3.00;;;;;22.71;71.15;101197.66;5024297;28;47305;-78
2022/08/24 01:55:32;;;;;;;;;3.00;3.00;;;;;22.62;71.02;101197.25;5023989;28;45202;-78
2022/08/24 01:57:58;;;;;;;;;7.00;5.67;;;;;22.64;71.11;101199.72;5022458;28;45242;-77
2022/08/24 02:00:23;;;;;;;;;5.67;4.00;;;;;22.59;70.86;101196.94;5025771;28;45410;-78
2022/08/24 02:02:49;;;;;;;;;4.00;4.00;;;;;22.63;71.49;101203.50;5031143;28;48204;-78
2022/08/24 02:05:15;;;;;;;;;5.00;5.00;;;;;22.60;70.99;101199.41;5017423;28;45302;-77
2022/08/24 02:07:41;;;;;;;;;4.00;4.00;;;;;22.57;71.03;101199.84;5017710;28;45382;-78
2022/08/24 02:10:08;;;;;;;;;4.00;3.00;;;;;22.54;71.79;101198.44;5017897;28;45627;-78
2022/08/24 02:12:36;;;;;;;;;3.67;3.67;;;;;22.48;71.71;101191.31;5017438;28;45653;-77
2022/08/24 02:15:04;;;;;;;;;3.00;3.00;;;;;22.41;72.03;101186.03;5022799;28;45292;-78
2022/08/24 02:17:29;;;;;;;;;2.00;2.00;;;;;22.41;72.25;101180.63;5024965;28;45328;-78
2022/08/24 02:19:54;;;;;;;;;3.00;3.00;;;;;22.43;71.59;101178.50;5017382;28;45442;-77
2022/08/24 02:22:20;;;;;;;;;3.00;3.00;;;;;22.45;72.29;101184.47;5017362;28;45479;-77
2022/08/24 02:24:45;;;;;;;;;4.00;4.00;;;;;22.50;71.80;101193.75;5017295;28;45251;-77
2022/08/24 02:27:10;;;;;;;;;2.33;2.33;;;;;22.55;71.99;101199.28;5017616;28;45243;-78
2022/08/24 02:29:36;;;;;;;;;5.33;5.00;;;;;22.53;72.32;101190.56;5017431;28;45385;-78
2022/08/24 02:32:01;;;;;;;;;3.00;3.00;;;;;22.52;71.46;101183.50;5022457;28;47142;-78
2022/08/24 02:34:27;;;;;;;;;4.00;4.00;;;;;22.53;71.93;101193.25;5025164;28;45444;-78
2022/08/24 02:36:52;;;;;;;;;3.33;3.33;;;;;22.52;71.67;101189.75;5034257;28;45775;-78
2022/08/24 02:39:18;;;;;;;;;3.00;3.00;;;;;22.55;71.76;101191.16;5036161;28;47277;-78
2022/08/24 02:41:43;;;;;;;;;3.00;3.00;;;;;22.48;71.53;101179.66;5050416;28;47313;-78
2022/08/24 02:44:08;;;;;;;;;5.67;5.33;;;;;22.39;72.15;101169.19;5024513;28;45247;-78
2022/08/24 02:46:34;;;;;;;;;3.33;3.33;;;;;22.44;71.92;101184.72;5023313;28;45227;-78
2022/08/24 02:48:59;;;;;;;;;3.00;3.00;;;;;22.39;72.48;101184.66;5019430;28;45279;-77
2022/08/24 02:51:28;;;;;;;;;4.00;4.00;;;;;22.39;72.21;101187.34;5028817;28;45286;-77
2022/08/24 02:53:55;;;;;;;;;3.00;3.00;;;;;22.38;72.04;101194.66;5029852;28;45317;-77
2022/08/24 02:56:20;;;;;;;;;3.67;3.67;;;;;22.35;72.01;101192.41;5017380;28;45376;-78
2022/08/24 02:58:46;;;;;;;;;3.00;3.00;;;;;22.32;72.39;101182.91;5028171;28;45499;-77
2022/08/24 03:01:12;;;;;;;;;4.33;4.33;;;;;22.32;72.40;101182.06;5032275;28;46476;-77
2022/08/24 03:03:38;;;;;;;;;3.33;3.33;;;;;22.25;72.40;101176.00;5025946;28;45706;-77
2022/08/24 03:06:06;;;;;;;;;3.00;3.00;;;;;22.29;72.09;101180.69;5020434;28;45503;-77
2022/08/24 03:08:31;;;;;;;;;3.00;3.00;;;;;22.27;72.85;101184.69;5016745;28;45272;-77
2022/08/24 03:10:59;;;;;;;;;3.00;3.00;;;;;22.24;73.00;101187.88;5104616;27;45510;-77
2022/08/24 03:13:25;;;;;;;;;3.00;3.00;;;;;22.19;73.21;101180.50;5017055;28;45325;-78
2022/08/24 03:15:51;;;;;;;;;5.00;4.33;;;;;22.19;72.84;101184.03;5027056;28;45456;-77
2022/08/24 03:18:16;;;;;;;;;3.33;3.00;;;;;22.12;72.79;101175.22;5034871;28;47121;-78
2022/08/24 03:20:42;;;;;;;;;3.00;3.00;;;;;22.04;73.58;101171.03;5024377;28;46355;-77
2022/08/24 03:23:08;;;;;;;;;4.00;2.00;;;;;22.10;73.12;101179.22;5016289;28;45276;-78
2022/08/24 03:25:33;;;;;;;;;5.00;5.00;;;;;22.05;73.52;101177.25;5024853;28;45372;-78
2022/08/24 03:27:59;;;;;;;;;2.33;2.33;;;;;22.02;73.74;101175.84;5021582;28;45562;-78
2022/08/24 03:30:24;;;;;;;;;4.00;3.00;;;;;21.96;73.51;101173.31;5022411;28;47266;-78
2022/08/24 03:32:50;;;;;;;;;2.33;2.00;;;;;21.91;73.58;101180.22;5023950;28;45324;-77
2022/08/24 03:35:16;;;;;;;;;4.00;4.00;;;;;21.95;73.77;101194.13;5034536;28;45211;-77
2022/08/24 03:37:42;;;;;;;;;4.67;4.67;;;;;21.90;74.28;101183.19;5051842;28;46216;-77
2022/08/24 03:40:10;;;;;;;;;3.33;3.33;;;;;21.88;74.25;101188.81;5019338;28;45658;-78
2022/08/24 03:42:36;;;;;;;;;4.00;4.00;;;;;21.90;74.08;101180.47;5016713;28;45341;-78
2022/08/24 03:45:02;;;;;;;;;4.33;4.33;;;;;21.86;74.03;101180.16;5016742;28;45359;-77
2022/08/24 03:47:27;;;;;;;;;6.00;5.33;;;;;21.88;74.00;101185.31;5016525;28;45497;-78
2022/08/24 03:49:54;;;;;;;;;4.00;4.00;;;;;21.85;73.65;101181.19;5025869;28;45482;-78
2022/08/24 03:52:19;;;;;;;;;6.00;6.00;;;;;21.79;74.15;101176.75;5020583;28;45228;-77
2022/08/24 03:54:44;;;;;;;;;6.00;4.00;;;;;21.77;74.05;101178.88;5016513;28;45328;-78
2022/08/24 03:57:10;;;;;;;;;4.00;4.00;;;;;21.75;74.21;101171.00;5016397;28;45490;-77
2022/08/24 03:59:35;;;;;;;;;4.00;4.00;;;;;21.76;73.92;101179.94;5031099;28;47849;-78
2022/08/24 04:02:00;;;;;;;;;4.00;3.67;;;;;21.73;74.04;101177.69;5016519;28;45320;-77
2022/08/24 04:04:26;;;;;;;;;3.33;3.33;;;;;21.70;74.71;101168.97;5016282;28;45319;-78
2022/08/24 04:06:51;;;;;;;;;4.33;4.00;;;;;21.72;74.29;101176.84;5016218;28;45445;-78
2022/08/24 04:09:18;;;;;;;;;4.33;4.33;;;;;21.70;74.58;101177.09;5026499;28;47126;-77
2022/08/24 04:11:44;;;;;;;;;5.00;5.00;;;;;21.62;74.80;101171.22;5016139;28;45288;-78
2022/08/24 04:14:10;;;;;;;;;5.00;5.00;;;;;21.58;75.25;101168.19;5016236;28;45321;-77
2022/08/24 04:16:35;;;;;;;;;3.00;3.00;;;;;21.59;75.21;101169.00;5018806;28;45278;-77
2022/08/24 04:19:01;;;;;;;;;4.00;4.00;;;;;21.59;75.02;101183.34;5021988;28;47334;-78
2022/08/24 04:21:30;;;;;;;;;4.00;4.00;;;;;21.56;75.22;101181.94;5015724;28;45361;-77
2022/08/24 04:23:56;;;;;;;;;6.00;5.33;;;;;21.50;74.94;101176.66;5015962;28;45284;-78
2022/08/24 04:26:23;;;;;;;;;5.00;5.00;;;;;21.52;75.39;101186.16;5028569;28;45930;-77
2022/08/24 04:28:50;;;;;;;;;3.67;3.67;;;;;21.56;75.15;101191.94;5021393;28;47101;-77
2022/08/24 04:31:17;;;;;;;;;3.67;3.67;;;;;21.54;75.24;101185.94;5018676;28;45377;-77
2022/08/24 04:33:43;;;;;;;;;3.33;3.00;;;;;21.46;75.67;101170.88;5019080;28;45416;-78
2022/08/24 04:36:09;;;;;;;;;4.00;4.00;;;;;;;;5018906;28;45446;-77
2022/08/24 04:38:36;;;;;;;;;5.00;5.00;;;;;21.40;75.56;101163.75;5018326;28;46540;-77
2022/08/24 04:41:06;;;;;;;;;5.67;5.67;;;;;21.44;75.76;101173.84;5028075;28;46148;-77
2022/08/24 04:43:33;;;;;;;;;4.00;4.00;;;;;21.36;75.79;101163.38;5034124;28;45525;-77
2022/08/24 04:45:59;;;;;;;;;4.67;3.67;;;;;21.38;75.50;101169.41;5018683;28;45538;-77
2022/08/24 04:48:24;;;;;;;;;3.00;3.00;;;;;21.36;76.01;101174.19;5018673;28;45416;-78
2022/08/24 04:50:50;;;;;;;;;4.00;3.67;;;;;21.37;75.79;101177.75;5032674;28;45320;-77
2022/08/24 04:53:15;;;;;;;;;4.67;4.67;;;;;21.36;76.39;101174.19;5018615;28;45272;-77
2022/08/24 04:55:48;;;;;;;;;5.33;4.33;;;;;21.36;75.73;101176.06;5031231;28;46088;-77
2022/08/24 04:58:16;;;;;;;;;3.00;3.00;;;;;21.39;76.00;101191.81;5018693;28;45741;-77
2022/08/24 05:00:42;;;;;;;;;5.00;5.00;;;;;21.39;76.08;101181.84;5031301;28;45291;-77
2022/08/24 05:03:10;;;;;;;;;5.33;5.00;;;;;21.35;76.05;101188.78;5018746;28;45239;-78
2022/08/24 05:05:40;;;;;;;;;4.00;4.00;;;;;21.33;76.31;101180.09;5027925;28;45438;-77
2022/08/24 05:08:05;;;;;;;;;4.00;4.00;;;;;21.29;76.31;101170.81;5017773;28;46442;-78
2022/08/24 05:10:31;;;;;;;;;5.00;5.00;;;;;21.30;76.65;101169.75;5036021;28;45325;-77
2022/08/24 05:12:56;;;;;;;;;5.33;5.33;;;;;21.30;76.36;101186.78;5020825;28;45695;-78
2022/08/24 05:15:21;;;;;;;;;4.67;4.67;;;;;21.29;76.21;101176.22;5018832;28;45204;-77
2022/08/24 05:17:47;;;;;;;;;4.00;4.00;;;;;21.30;76.55;101183.25;5020708;28;45266;-78
2022/08/24 05:20:12;;;;;;;;;4.00;4.00;;;;;21.28;76.64;101177.28;5017119;28;45354;-78
2022/08/24 05:22:37;;;;;;;;;4.00;4.00;;;;;21.30;77.08;101194.06;5026812;28;45282;-77
2022/08/24 05:25:05;;;;;;;;;6.00;6.00;;;;;21.29;76.66;101203.25;5018215;28;45278;-78
2022/08/24 05:27:32;;;;;;;;;4.33;4.33;;;;;21.27;77.11;101200.78;5018164;28;46961;-78
2022/08/24 05:29:57;;;;;;;;;5.33;4.00;;;;;21.26;76.77;101198.31;5034457;28;45418;-78
2022/08/24 05:32:23;;;;;;;;;3.33;3.33;;;;;21.28;76.87;101198.91;5033539;28;45388;-78
2022/08/24 05:34:48;;;;;;;;;4.00;4.00;;;;;21.28;77.31;101197.00;5018064;28;45389;-78
2022/08/24 05:37:13;;;;;;;;;5.00;5.00;;;;;21.24;77.40;101197.69;5017970;28;45403;-77
2022/08/24 05:39:39;;;;;;;;;4.33;4.33;;;;;21.32;77.13;101210.88;5017410;28;45267;-78
2022/08/24 05:42:04;;;;;;;;;3.67;3.67;;;;;21.31;76.92;101210.03;5019341;27;45624;-77
2022/08/24 05:44:30;;;;;;;;;6.33;6.33;;;;;21.26;76.96;101207.25;5027209;28;45647;-77
2022/08/24 05:46:57;;;;;;;;;6.00;6.00;;;;;21.35;77.41;101218.53;5036512;28;48214;-77
2022/08/24 05:49:25;;;;;;;;;9.00;9.00;;;;;21.30;76.92;101205.72;5033813;28;45277;-76
2022/08/24 05:51:51;;;;;;;;;7.00;6.00;;;;;21.35;77.43;101204.19;5009070;28;45369;-77
2022/08/24 05:54:17;;;;;;;;;7.00;7.00;;;;;21.39;77.06;101200.78;5022127;28;45432;-77
2022/08/24 05:56:43;;;;;;;;;11.00;11.00;;;;;21.39;76.96;101200.78;5017827;28;45478;-77
2022/08/24 05:59:09;;;;;;;;;10.00;10.00;;;;;21.38;77.49;101201.00;5017700;28;45509;-77
2022/08/24 06:01:34;;;;;;;;;5.33;5.33;;;;;21.37;77.72;101202.06;5041057;28;45427;-78
2022/08/24 06:04:00;;;;;;;;;7.33;7.33;;;;;21.41;77.75;101212.19;5029445;28;45256;-77
2022/08/24 06:06:25;;;;;;;;;8.67;8.00;;;;;21.41;77.86;101197.81;5017665;28;45585;-77
2022/08/24 06:08:55;;;;;;;;;10.33;10.00;;;;;21.41;77.79;101204.06;5017734;28;45285;-76
2022/08/24 06:11:23;;;;;;;;;9.67;8.00;;;;;;;;5017691;28;45380;-77
2022/08/24 06:13:49;;;;;;;;;9.00;9.00;;;;;;;;5017677;28;45505;-77
2022/08/24 06:16:14;;;;;;;;;8.00;7.67;;;;;21.52;77.56;101209.69;5020368;28;45548;-76
2022/08/24 06:18:39;;;;;;;;;6.00;6.00;;;;;21.49;77.90;101200.16;5017906;28;45492;-76
2022/08/24 06:21:11;;;;;;;;;6.00;6.00;;;;;21.56;78.24;101208.16;5017935;28;45339;-76
2022/08/24 06:23:38;;;;;;;;;8.33;8.33;;;;;21.64;77.87;101217.78;5017353;28;46327;-75
2022/08/24 06:28:49;;;;;;;;;7.00;6.67;;;;;21.71;77.95;101210.38;5029594;28;45522;-75
2022/08/24 06:31:14;;;;;;;;;5.33;5.00;;;;;21.75;78.24;101205.28;5017697;28;45262;-75
2022/08/24 06:33:40;;;;;;;;;8.33;7.33;;;;;21.76;78.28;101202.38;5017334;28;46601;-75
2022/08/24 06:36:05;;;;;;;;;6.00;6.00;;;;;21.88;77.93;101215.88;5033442;28;45368;-75
2022/08/24 06:38:31;;;;;;;;;7.00;7.00;;;;;22.01;77.67;101224.78;5019140;28;45689;-76
2022/08/24 06:40:56;;;;;;;;;9.67;9.00;;;;;22.02;77.88;101219.16;5026116;28;45259;-75
2022/08/24 06:43:23;;;;;;;;;8.00;7.33;;;;;22.05;77.93;101210.56;5021649;28;45204;-75
2022/08/24 06:45:49;;;;;;;;;8.67;7.33;;;;;22.14;77.48;101219.09;5024061;28;47955;-76
2022/08/24 06:48:14;;;;;;;;;9.00;8.67;;;;;22.25;77.66;101220.13;5023655;28;45283;-77
2022/08/24 06:50:39;;;;;;;;;11.33;9.67;;;;;22.30;77.46;101216.72;5031025;28;45378;-78
2022/08/24 06:53:05;;;;;;;;;8.00;8.00;;;;;22.36;77.49;101204.09;5016260;28;45401;-77
2022/08/24 06:55:30;;;;;;;;;9.33;9.00;;;;;22.42;76.68;101205.81;5019223;28;46997;-78
2022/08/24 06:57:56;;;;;;;;;10.67;10.67;;;;;22.55;76.54;101216.34;5032296;28;50295;-78
2022/08/24 07:00:21;;;;;;;;;37.67;31.00;;;;;22.61;75.96;101222.72;5018921;28;45294;-77
2022/08/24 07:02:47;;;;;;;;;21.33;18.33;;;;;22.70;76.06;101217.72;5025072;28;47236;-78
2022/08/24 07:05:13;;;;;;;;;30.00;27.00;;;;;22.78;76.06;101222.72;5017557;28;47091;-79
2022/08/24 07:07:38;;;;;;;;;32.00;30.00;;;;;22.83;76.25;101217.38;5015583;28;45355;-77
2022/08/24 07:10:05;;;;;;;;;41.33;34.00;;;;;22.92;75.08;101223.22;5015811;28;45392;-77
2022/08/24 07:12:30;;;;;;;;;30.33;28.67;;;;;22.97;75.22;101218.94;5020905;28;47092;-78
2022/08/24 07:14:56;;;;;;;;;31.00;29.33;;;;;23.01;75.17;101210.06;5051283;28;47303;-78
2022/08/24 07:17:21;;;;;;;;;26.33;24.67;;;;;23.08;75.66;101208.00;5031491;28;45633;-78
2022/08/24 07:19:47;;;;;;;;;27.67;25.00;;;;;23.19;75.09;101221.72;5016140;28;45332;-79
2022/08/24 07:22:13;;;;;;;;;25.00;23.33;;;;;23.24;74.47;101224.53;5015169;28;45630;-79
2022/08/24 07:24:39;;;;;;;;;20.00;19.67;;;;;23.28;74.83;101217.53;5029042;28;46264;-78
2022/08/24 07:27:05;;;;;;;;;24.33;23.33;;;;;23.40;73.95;101216.66;5014200;28;45491;-80
2022/08/24 07:29:31;;;;;;;;;25.00;23.33;;;;;23.45;73.32;101219.41;5030397;28;45673;-78
2022/08/24 07:31:57;;;;;;;;;23.67;22.67;;;;;23.55;72.79;101226.88;5023738;28;45767;-79
2022/08/24 07:34:22;;;;;;;;;23.33;19.00;;;;;23.57;72.94;101222.84;5034096;28;48234;-81
2022/08/24 07:36:49;;;;;;;;;18.00;16.33;;;;;23.68;72.11;101220.28;5023323;28;45337;-81
2022/08/24 07:39:15;;;;;;;;;20.00;16.00;;;;;23.77;71.65;101224.19;5018577;28;45529;-80
2022/08/24 07:41:43;;;;;;;;;17.67;16.00;;;;;23.86;72.13;101223.75;5025271;28;47325;-81
2022/08/24 07:44:11;;;;;;;;;17.67;16.33;;;;;23.97;72.00;101233.63;5019224;28;46586;-80
2022/08/24 07:46:38;;;;;;;;;14.00;14.00;;;;;24.04;72.57;101239.72;5016395;28;45476;-81
2022/08/24 07:49:04;;;;;;;;;14.00;13.00;;;;;24.07;72.00;101224.81;5018987;28;45798;-79
2022/08/24 07:51:30;;;;;;;;;13.33;13.33;;;;;24.13;71.61;101229.25;5034613;28;46117;-78
2022/08/24 07:53:55;;;;;;;;;16.67;15.33;;;;;24.23;71.63;101233.97;5019627;28;48219;-78
2022/08/24 07:56:21;;;;;;;;;12.67;11.00;;;;;24.24;69.90;101222.03;5016580;28;45341;-81
2022/08/24 07:58:47;;;;;;;;;12.67;11.33;;;;;24.34;70.58;101224.84;5027651;28;45412;-75
2022/08/24 08:01:12;;;;;;;;;18.67;17.00;;;;;24.46;70.52;101241.00;5017535;28;45588;-75
2022/08/24 08:03:37;;;;;;;;;22.00;19.33;;;;;24.54;70.11;101233.47;5015972;28;46696;-78
2022/08/24 08:06:06;;;;;;;;;24.00;20.33;;;;;24.63;70.01;101233.84;5014720;28;45302;-78
2022/08/24 08:08:38;;;;;;;;;32.00;27.00;;;;;24.74;68.89;101232.84;5021486;27;45394;-79
2022/08/24 08:11:04;;;;;;;;;22.33;21.33;;;;;24.81;68.25;101222.56;5025473;28;45541;-79
2022/08/24 08:13:30;;;;;;;;;18.67;17.67;;;;;24.95;67.42;101233.03;5021571;28;47482;-79
2022/08/24 08:15:58;;;;;;;;;22.00;19.00;;;;;25.04;68.33;101231.47;5020304;28;45371;-77
2022/08/24 08:18:23;;;;;;;;;13.67;13.67;;;;;25.13;68.16;101231.81;5021494;28;45407;-79
2022/08/24 08:20:48;;;;;;;;;15.00;15.00;;;;;25.27;67.34;101236.78;5027776;28;45957;-77
2022/08/24 08:26:00;;;;;;;;;6.00;6.00;;;;;25.42;66.28;101230.63;5021987;28;45602;-77
2022/08/24 08:28:31;;;;;;;;;11.00;9.00;;;;;25.55;65.93;101235.59;5015347;28;45380;-76
2022/08/24 08:30:57;;;;;;;;;11.33;10.67;;;;;25.66;65.41;101230.25;5014548;28;45283;-77
2022/08/24 08:33:23;;;;;;;;;7.67;5.67;;;;;25.78;65.07;101228.13;5022054;28;47301;-77
2022/08/24 08:35:50;;;;;;;;;8.00;5.67;;;;;25.93;63.88;101229.25;5018922;28;45380;-77
2022/08/24 08:38:16;;;;;;;;;5.67;4.67;;;;;26.04;64.22;101235.56;5027964;28;45399;-78
2022/08/24 08:40:59;;;;;;;;;9.00;9.00;;;;;26.19;64.56;101242.97;5047419;28;47131;-77
2022/08/24 08:43:40;;;;;;;;;2.00;2.00;;;;;26.29;63.50;101239.44;5022706;28;48176;-77
2022/08/24 08:46:30;;;;;;;;;4.67;4.67;;;;;26.41;63.05;101239.22;5016926;28;45423;-76
2022/08/24 08:49:23;;;;;;;;;1.00;1.00;;;;;26.46;61.83;101222.91;5016069;28;45238;-76
2022/08/24 08:52:25;;;;;;;;;2.25;1.00;;;;;26.63;61.10;101235.44;5020701;28;46450;-76
2022/08/24 08:55:04;;;;;;;;;1.00;1.00;;;;;26.73;61.09;101232.72;5017645;28;47347;-74
2022/08/24 08:57:55;;;;;;;;;2.25;2.25;;;;;26.79;60.10;101223.44;5014929;28;45310;-75
2022/08/24 09:00:43;;;;;;;;;1.33;1.33;;;;;26.88;59.39;101220.19;5015611;28;45353;-74
2022/08/24 09:03:11;;;;;;;;;0.25;0.25;;;;;27.05;58.95;101230.81;5018165;28;45555;-76
2022/08/24 09:06:04;;;;;;;;;0.25;0.25;;;;;27.17;59.00;101227.81;5022003;28;46267;-74
2022/08/24 09:08:42;;;;;;;;;0.00;0.00;;;;;27.26;58.02;101225.34;5025950;28;45402;-75
2022/08/24 09:11:32;;;;;;;;;1.00;1.00;;;;;27.40;58.42;101231.84;5018416;28;45500;-75
2022/08/24 09:14:13;;;;;;;;;0.00;0.00;;;;;27.48;56.96;101228.53;5015021;28;45349;-74
2022/08/24 09:17:15;;;;;;;;;0.00;0.00;;;;;27.64;56.84;101235.84;5034754;28;48354;-77
2022/08/24 09:19:59;;;;;;;;;1.00;1.00;;;;;27.73;56.92;101234.22;5030616;28;45284;-80
2022/08/24 09:22:25;;;;;;;;;3.75;2.50;;;;;27.73;56.85;101213.22;5033099;28;45299;-77
2022/08/24 09:24:53;;;;;;;;;1.75;1.75;;;;;27.90;56.39;101224.88;5017845;28;45469;-78
2022/08/24 09:27:47;;;;;;;;;1.00;1.00;;;;;27.95;55.40;101224.84;5018064;28;46380;-77
2022/08/24 09:30:23;;;;;;;;;0.00;0.00;;;;;28.05;55.98;101230.25;5033203;28;45787;-78
2022/08/24 09:32:59;;;;;;;;;0.00;0.00;;;;;28.13;55.07;101237.03;5017785;28;45483;-76
2022/08/24 09:35:49;;;;;;;;;0.25;0.25;;;;;28.19;53.59;101216.78;5036144;28;45271;-76
2022/08/24 09:38:33;;;;;;;;;1.00;1.00;;;;;28.32;52.92;101229.03;5036879;28;45512;-76
2022/08/24 09:41:23;;;;;;;;;0.50;0.50;;;;;28.48;53.30;101234.38;5037126;28;45255;-75
2022/08/24 09:44:08;;;;;;;;;1.50;1.00;;;;;28.56;53.12;101224.75;5036160;28;45436;-76
2022/08/24 09:46:58;;;;;;;;;0.00;0.00;;;;;28.61;50.99;101230.16;5037056;28;45479;-77
2022/08/24 09:49:23;;;;;;;;;0.00;0.00;;;;;28.71;51.12;101226.56;5036400;28;47438;-77
2022/08/24 09:52:01;;;;;;;;;0.00;0.00;;;;;28.76;50.77;101231.97;5035364;28;45858;-75
2022/08/24 09:54:44;;;;;;;;;0.00;0.00;;;;;28.75;49.86;101219.41;5032685;28;45438;-76
2022/08/24 09:57:28;;;;;;;;;0.25;0.00;;;;;28.82;49.70;101236.28;5021867;28;45241;-78
2022/08/24 10:00:33;;;;;;;;;0.00;0.00;;;;;28.86;50.63;101220.97;5032386;28;47675;-76
2022/08/24 10:03:37;;;;;;;;;0.75;0.75;;;;;29.00;50.60;101220.28;5033606;28;45428;-76
2022/08/24 10:06:23;;;;;;;;;1.25;0.00;;;;;29.09;50.39;101213.09;5023229;28;45361;-77
2022/08/24 10:09:25;;;;;;;;;0.00;0.00;;;;;29.30;49.99;101220.28;5032897;28;46371;-75
2022/08/24 10:12:06;;;;;;;;;1.00;1.00;;;;;29.40;48.58;101211.97;5024651;28;47590;-77
2022/08/24 10:14:37;;;;;;;;;0.75;0.75;;;;;29.57;49.50;101219.72;5018366;28;45665;-78
2022/08/24 10:17:23;;;;;;;;;0.50;0.50;;;;;29.70;48.25;101220.94;5029651;28;45297;-79
2022/08/24 10:20:04;;;;;;;;;0.00;0.00;;;;;29.87;48.24;101211.41;5018076;28;46245;-77
2022/08/24 10:22:51;;;;;;;;;0.75;0.75;;;;;30.04;46.59;101208.16;5017323;28;45406;-78
2022/08/24 10:25:17;;;;;;;;;1.00;1.00;;;;;30.17;47.08;101194.84;5026471;28;46143;-77
2022/08/24 10:27:45;;;;;;;;;1.00;1.00;;;;;30.33;47.18;101209.13;5021930;28;45318;-78
2022/08/24 10:30:35;;;;;;;;;0.00;0.00;;;;;30.52;46.49;101200.06;5025569;28;46038;-78
2022/08/24 10:33:27;;;;;;;;;0.00;0.00;;;;;30.67;46.12;101190.78;5019192;28;45662;-75
2022/08/24 10:36:24;;;;;;;;;0.25;0.25;;;;;30.81;45.51;101185.34;5029680;28;45287;-76
2022/08/24 10:42:05;;;;;;;;;0.50;0.50;;;;;31.04;45.60;101189.03;5017757;28;45369;-74
2022/08/24 10:44:47;;;;;;;;;0.00;0.00;;;;;31.24;45.12;101184.25;5026560;28;45415;-76
2022/08/24 10:47:21;;;;;;;;;0.00;0.00;;;;;31.42;43.83;101181.75;5017583;28;45608;-75
2022/08/24 10:50:01;;;;;;;;;0.50;0.50;;;;;31.59;42.86;101187.41;5025687;28;45383;-76
2022/08/24 10:52:51;;;;;;;;;0.00;0.00;;;;;31.86;43.01;101185.72;5033006;28;46395;-75
2022/08/24 10:55:19;;;;;;;;;0.50;0.50;;;;;32.05;42.95;101186.72;5017422;28;46357;-75
2022/08/24 10:58:22;;;;;;;;;0.00;0.00;;;;;32.22;42.24;101189.59;5033987;28;45433;-76
2022/08/24 11:00:48;;;;;;;;;0.00;0.00;;;;;32.22;42.10;101167.63;5032531;28;45281;-75
2022/08/24 11:03:20;;;;;;;;;2.75;0.75;;;;;32.42;41.40;101178.41;5017267;28;45489;-74
2022/08/24 11:05:50;;;;;;;;;0.00;0.00;;;;;32.53;42.24;101177.03;5045878;28;48111;-74
2022/08/24 11:08:49;;;;;;;;;1.00;1.00;;;;;32.56;41.01;101181.91;5016501;28;45373;-76
2022/08/24 11:11:31;;;;;;;;;55.33;44.33;;;;;32.58;41.09;101176.94;5019259;28;45301;-77
2022/08/24 11:14:15;;;;;;;;;3.75;3.75;;;;;32.69;40.50;101176.66;5016461;28;45393;-75
2022/08/24 11:16:43;;;;;;;;;13.33;13.33;;;;;32.75;40.15;101167.16;5027481;28;46600;-75
2022/08/24 11:19:34;;;;;;;;;0.75;0.75;;;;;32.90;39.74;101173.34;5015181;28;45567;-76
2022/08/24 11:22:03;;;;;;;;;0.00;0.00;;;;;33.01;40.65;101163.69;5019778;28;45243;-74
2022/08/24 11:24:42;;;;;;;;;0.50;0.50;;;;;33.17;40.07;101168.78;5015127;28;45406;-74
2022/08/24 11:27:25;;;;;;;;;2.00;2.00;;;;;33.35;40.47;101167.72;5033075;28;47625;-74
2022/08/24 11:29:50;;;;;;;;;29.67;25.33;;;;;33.52;39.01;101157.88;5032132;28;45403;-75
2022/08/24 11:32:30;;;;;;;;;2.25;1.50;;;;;33.67;38.89;101158.56;5026223;28;45373;-74
2022/08/24 11:35:02;;;;;;;;;1.00;0.00;;;;;33.76;38.59;101164.88;5018080;28;45554;-74
2022/08/24 11:37:34;;;;;;;;;1.25;1.25;;;;;33.85;38.83;101151.91;5015676;28;45386;-75
2022/08/24 11:40:01;;;;;;;;;0.25;0.25;;;;;33.99;37.77;101162.75;5028028;28;45358;-75
2022/08/24 11:42:32;;;;;;;;;0.00;0.00;;;;;34.00;38.10;101160.81;5017276;28;45353;-74
2022/08/24 11:45:27;;;;;;;;;0.00;0.00;;;;;34.07;37.43;101146.53;5018382;28;47733;-74
2022/08/24 11:47:58;;;;;;;;;1.00;1.00;;;;;34.07;37.07;101146.53;5048767;28;45634;-73
2022/08/24 11:50:29;;;;;;;;;3.00;1.50;;;;;34.09;35.56;101136.78;5031462;28;45236;-74